Time;durP1;ratioP1;P1;durP2;ratioP2;P2;SDS_P1;SDS_P2;PMS_P1;PMS_P2;Temp;Humidity;BMP_temperature;BMP_pressure;BME280_temperature;BME280_humidity;BME280_pressure;Samples;Min_cycle;Max_cycle;Signal;HPM_P1;HPM_P2
2023/09/12 00:02:24;;;;;;;34.50;17.38;;;22.20;99.40;;;;;;5058805;28;20139;-64
2023/09/12 00:04:50;;;;;;;20.80;15.23;;;22.20;99.50;;;;;;5055188;28;20036;-64
2023/09/12 00:07:16;;;;;;;21.10;16.85;;;22.10;99.50;;;;;;5030217;28;20440;-65
2023/09/12 00:09:43;;;;;;;24.92;17.98;;;22.20;99.70;;;;;;5056206;28;20043;-64
2023/09/12 00:12:16;;;;;;;21.00;15.98;;;22.10;99.70;;;;;;5049977;28;20266;-64
2023/09/12 00:14:42;;;;;;;17.33;15.20;;;22.10;99.80;;;;;;5054629;28;20182;-64
2023/09/12 00:17:09;;;;;;;19.92;16.83;;;22.10;99.80;;;;;;5048452;28;20294;-64
2023/09/12 00:19:35;;;;;;;17.20;15.25;;;22.10;99.80;;;;;;5045713;28;20037;-64
2023/09/12 00:22:00;;;;;;;20.65;15.98;;;22.10;99.80;;;;;;5054836;28;20048;-65
2023/09/12 00:24:26;;;;;;;21.40;15.32;;;22.10;99.80;;;;;;5055673;28;20202;-64
2023/09/12 00:26:52;;;;;;;19.23;14.60;;;22.10;99.80;;;;;;5055023;28;20404;-64
2023/09/12 00:29:18;;;;;;;20.90;15.50;;;22.10;99.80;;;;;;5049997;28;20314;-64
2023/09/12 00:31:43;;;;;;;20.52;14.88;;;22.00;99.90;;;;;;5051651;28;20103;-64
2023/09/12 00:34:09;;;;;;;28.58;17.75;;;22.00;99.90;;;;;;5050727;28;20476;-64
2023/09/12 00:36:36;;;;;;;18.38;15.00;;;22.00;99.90;;;;;;5038368;28;20165;-64
2023/09/12 00:39:02;;;;;;;23.90;16.63;;;22.00;99.90;;;;;;5042054;28;20044;-64
2023/09/12 00:41:28;;;;;;;20.75;15.48;;;21.90;99.90;;;;;;5043845;28;20472;-65
2023/09/12 00:43:54;;;;;;;19.10;15.32;;;21.90;99.90;;;;;;5060523;28;20040;-64
2023/09/12 00:46:23;;;;;;;23.30;16.30;;;21.90;99.90;;;;;;5065859;28;20072;-64
2023/09/12 00:48:50;;;;;;;18.70;16.05;;;21.90;99.90;;;;;;5061583;28;20126;-64
2023/09/12 00:51:18;;;;;;;21.70;16.95;;;21.90;99.90;;;;;;5054642;28;20408;-64
2023/09/12 00:53:44;;;;;;;24.35;17.38;;;21.80;99.90;;;;;;5064437;28;20062;-64
2023/09/12 00:56:10;;;;;;;26.40;16.52;;;21.80;99.90;;;;;;5049888;28;20222;-64
2023/09/12 00:58:35;;;;;;;22.77;16.73;;;21.80;99.90;;;;;;5053189;28;20160;-64
2023/09/12 01:01:02;;;;;;;18.73;15.50;;;21.80;99.90;;;;;;5052520;28;20184;-64
2023/09/12 01:03:28;;;;;;;24.90;16.35;;;21.80;99.90;;;;;;5050526;28;20046;-64
2023/09/12 01:05:54;;;;;;;20.48;16.00;;;21.80;99.90;;;;;;5039856;28;20041;-64
2023/09/12 01:08:20;;;;;;;25.35;18.25;;;21.80;99.90;;;;;;5044363;28;20040;-64
2023/09/12 01:10:49;;;;;;;22.83;17.77;;;21.70;99.90;;;;;;5055792;28;20170;-64
2023/09/12 01:13:15;;;;;;;24.63;18.30;;;21.70;99.90;;;;;;5056164;28;20047;-64
2023/09/12 01:15:41;;;;;;;20.77;17.88;;;21.70;99.90;;;;;;5057962;28;20025;-64
2023/09/12 01:18:07;;;;;;;21.83;17.42;;;21.60;99.90;;;;;;5060842;28;20063;-64
2023/09/12 01:20:35;;;;;;;22.08;17.60;;;21.60;99.90;;;;;;5052083;28;20202;-64
2023/09/12 01:23:15;;;;;;;23.50;18.05;;;21.60;99.90;;;;;;5025570;28;20142;-64
2023/09/12 01:26:00;;;;;;;25.48;17.75;;;;;;;;;;5049525;28;20044;-64
2023/09/12 01:28:29;;;;;;;25.00;19.65;;;21.50;99.90;;;;;;5047314;28;20040;-64
2023/09/12 01:30:55;;;;;;;23.48;17.63;;;21.50;99.90;;;;;;5045879;28;20287;-64
2023/09/12 01:33:21;;;;;;;22.75;19.48;;;21.40;99.90;;;;;;5058444;28;20132;-64
2023/09/12 01:35:47;;;;;;;25.40;18.48;;;21.50;99.90;;;;;;5056172;28;20241;-64
2023/09/12 01:38:13;;;;;;;24.40;17.45;;;21.40;99.90;;;;;;5040424;28;20055;-64
2023/09/12 01:40:48;;;;;;;21.95;17.35;;;21.40;99.90;;;;;;5056650;28;20055;-64
2023/09/12 01:43:17;;;;;;;24.17;17.50;;;21.40;99.90;;;;;;5055415;28;20624;-64
2023/09/12 01:45:45;;;;;;;24.33;18.30;;;21.40;99.90;;;;;;5059110;28;20303;-64
2023/09/12 01:48:12;;;;;;;24.10;17.88;;;21.30;99.90;;;;;;5052650;28;20043;-64
2023/09/12 01:50:38;;;;;;;20.20;17.92;;;21.30;99.90;;;;;;5061236;28;20044;-64
2023/09/12 01:53:04;;;;;;;22.42;15.93;;;21.30;99.90;;;;;;5063135;28;20282;-64
2023/09/12 01:55:30;;;;;;;24.95;17.90;;;21.30;99.90;;;;;;5041824;28;20048;-64
2023/09/12 01:57:57;;;;;;;20.23;16.52;;;21.20;99.90;;;;;;5041556;28;20304;-64
2023/09/12 02:00:24;;;;;;;22.88;16.95;;;21.20;99.90;;;;;;5049164;28;20097;-64
2023/09/12 02:02:50;;;;;;;22.38;17.38;;;21.20;99.90;;;;;;5044220;28;20047;-64
2023/09/12 02:05:21;;;;;;;23.83;16.85;;;21.20;99.90;;;;;;5050093;28;20233;-64
2023/09/12 02:07:47;;;;;;;22.95;17.42;;;21.20;99.90;;;;;;5049445;28;20139;-64
2023/09/12 02:10:13;;;;;;;21.10;18.08;;;21.20;99.90;;;;;;5052935;28;20290;-64
2023/09/12 02:12:39;;;;;;;21.98;18.08;;;21.20;99.90;;;;;;5051692;28;20261;-64
2023/09/12 02:15:06;;;;;;;20.95;17.65;;;21.10;99.90;;;;;;5054144;28;20092;-64
2023/09/12 02:17:32;;;;;;;21.08;16.45;;;21.10;99.90;;;;;;5052642;28;20573;-65
2023/09/12 02:19:57;;;;;;;20.83;17.35;;;21.10;99.90;;;;;;5054710;28;20040;-64
2023/09/12 02:22:23;;;;;;;19.13;15.90;;;21.10;99.90;;;;;;5046674;28;20044;-64
2023/09/12 02:24:50;;;;;;;23.25;18.35;;;21.10;99.90;;;;;;5048321;28;20028;-64
2023/09/12 02:27:16;;;;;;;23.95;18.17;;;21.10;99.90;;;;;;5046488;28;20184;-64
2023/09/12 02:29:42;;;;;;;22.63;18.10;;;21.00;99.90;;;;;;5047632;28;20043;-64
2023/09/12 02:32:08;;;;;;;20.17;16.75;;;21.10;99.90;;;;;;5062486;28;20617;-64
2023/09/12 02:34:34;;;;;;;24.23;17.45;;;21.00;99.90;;;;;;5058626;28;20412;-64
2023/09/12 02:37:01;;;;;;;23.60;18.35;;;21.00;99.90;;;;;;5053527;28;20302;-64
2023/09/12 02:39:27;;;;;;;26.10;17.83;;;21.00;99.90;;;;;;5051469;28;20407;-65
2023/09/12 02:41:53;;;;;;;21.33;17.58;;;21.00;99.90;;;;;;5053340;28;20040;-64
2023/09/12 02:44:18;;;;;;;22.60;18.50;;;21.00;99.90;;;;;;5049876;28;20040;-65
2023/09/12 02:46:44;;;;;;;21.88;18.52;;;20.90;99.90;;;;;;5055903;28;20107;-64
2023/09/12 02:49:10;;;;;;;24.23;18.17;;;20.90;99.90;;;;;;5059703;28;20126;-65
2023/09/12 02:51:39;;;;;;;23.40;17.48;;;20.90;99.90;;;;;;5049226;28;20229;-64
2023/09/12 02:54:05;;;;;;;21.38;18.33;;;20.90;99.90;;;;;;5060965;28;20120;-64
2023/09/12 02:56:31;;;;;;;26.45;17.38;;;20.90;99.90;;;;;;5049640;28;20087;-65
2023/09/12 02:58:57;;;;;;;26.27;18.17;;;20.90;99.90;;;;;;5045704;28;20056;-64
2023/09/12 03:01:27;;;;;;;22.90;18.05;;;20.90;99.90;;;;;;5050390;28;20241;-65
2023/09/12 03:03:53;;;;;;;22.08;16.90;;;20.80;99.90;;;;;;5066525;28;20080;-64
2023/09/12 03:06:21;;;;;;;21.15;16.73;;;20.90;99.90;;;;;;5050130;28;20153;-65
2023/09/12 03:08:48;;;;;;;22.23;17.60;;;20.80;99.90;;;;;;5058996;28;20052;-62
2023/09/12 03:11:14;;;;;;;19.88;16.98;;;20.80;99.90;;;;;;5053409;28;20075;-63
2023/09/12 03:13:41;;;;;;;20.38;16.75;;;20.80;99.90;;;;;;5037062;28;20047;-64
2023/09/12 03:16:11;;;;;;;21.05;15.65;;;20.80;99.90;;;;;;5053327;28;20135;-63
2023/09/12 03:18:36;;;;;;;17.90;15.95;;;20.80;99.90;;;;;;5050659;28;20204;-64
2023/09/12 03:21:02;;;;;;;19.60;15.57;;;20.70;99.90;;;;;;5051298;28;20284;-63
2023/09/12 03:23:31;;;;;;;16.83;14.95;;;20.70;99.90;;;;;;5056069;28;20040;-63
2023/09/12 03:26:05;;;;;;;17.15;14.10;;;20.70;99.90;;;;;;5054055;28;20139;-63
2023/09/12 03:28:31;;;;;;;16.45;14.35;;;20.60;99.90;;;;;;5053277;28;20143;-63
2023/09/12 03:31:11;;;;;;;15.18;13.50;;;20.60;99.90;;;;;;5048057;28;20040;-63
2023/09/12 03:33:37;;;;;;;17.83;13.90;;;20.60;99.90;;;;;;5050975;28;20064;-63
2023/09/12 03:36:03;;;;;;;16.30;13.10;;;20.50;99.90;;;;;;5040691;28;20295;-63
2023/09/12 03:38:29;;;;;;;16.45;13.50;;;20.50;99.90;;;;;;5039827;28;20187;-63
2023/09/12 03:40:55;;;;;;;13.80;12.40;;;20.50;99.90;;;;;;5048706;28;20186;-63
2023/09/12 03:43:22;;;;;;;15.65;13.38;;;20.50;99.90;;;;;;5051899;28;20634;-63
2023/09/12 03:45:48;;;;;;;16.40;14.32;;;20.50;99.90;;;;;;5057220;28;20032;-63
2023/09/12 03:48:14;;;;;;;17.00;13.93;;;20.50;99.90;;;;;;5045726;28;20225;-63
2023/09/12 03:50:40;;;;;;;13.80;12.35;;;20.50;99.90;;;;;;5047480;28;20040;-63
2023/09/12 03:53:06;;;;;;;13.75;12.30;;;20.50;99.90;;;;;;5051393;28;20060;-63
2023/09/12 03:55:32;;;;;;;15.98;14.35;;;20.50;99.90;;;;;;5052751;28;20032;-63
2023/09/12 03:57:57;;;;;;;16.30;14.00;;;20.50;99.90;;;;;;5053605;28;20106;-63
2023/09/12 04:00:23;;;;;;;15.27;13.63;;;20.40;99.90;;;;;;5054205;28;20044;-63
2023/09/12 04:02:49;;;;;;;15.32;13.38;;;20.40;99.90;;;;;;5053463;28;20036;-63
2023/09/12 04:05:15;;;;;;;16.35;14.25;;;20.40;99.90;;;;;;5053900;28;20051;-64
2023/09/12 04:07:40;;;;;;;15.75;14.10;;;20.40;99.90;;;;;;5051867;28;20040;-63
2023/09/12 04:10:06;;;;;;;15.88;13.40;;;20.40;99.90;;;;;;5055835;28;20298;-63
2023/09/12 04:12:32;;;;;;;14.90;13.30;;;20.30;99.90;;;;;;5052899;28;20029;-63
2023/09/12 04:14:58;;;;;;;15.05;12.75;;;20.30;99.90;;;;;;5054047;28;20094;-63
2023/09/12 04:17:24;;;;;;;14.65;13.10;;;20.30;99.90;;;;;;5054749;28;20071;-63
2023/09/12 04:19:49;;;;;;;17.52;15.75;;;20.30;99.90;;;;;;5053715;28;20060;-63
2023/09/12 04:22:15;;;;;;;17.80;14.95;;;20.30;99.90;;;;;;5054633;28;20161;-63
2023/09/12 04:24:41;;;;;;;15.93;13.32;;;20.30;99.90;;;;;;5057374;28;20043;-63
2023/09/12 04:27:07;;;;;;;15.73;14.02;;;20.20;99.90;;;;;;5060115;28;20338;-63
2023/09/12 04:29:35;;;;;;;16.67;14.70;;;20.20;99.90;;;;;;5048359;28;20032;-63
2023/09/12 04:32:05;;;;;;;16.65;13.45;;;20.20;99.90;;;;;;5056339;28;20488;-63
2023/09/12 04:34:31;;;;;;;17.55;14.35;;;20.10;99.90;;;;;;5047543;28;20059;-63
2023/09/12 04:36:57;;;;;;;17.10;15.07;;;20.10;99.90;;;;;;5036603;28;20040;-63
2023/09/12 04:39:23;;;;;;;16.70;13.57;;;20.10;99.90;;;;;;5029495;28;20396;-64
2023/09/12 04:41:49;;;;;;;16.85;15.05;;;20.10;99.90;;;;;;5053041;28;20126;-63
2023/09/12 04:44:15;;;;;;;21.48;15.43;;;20.10;99.90;;;;;;5049699;28;20275;-63
2023/09/12 04:46:40;;;;;;;22.10;16.52;;;20.10;99.90;;;;;;5052060;28;20044;-64
2023/09/12 04:49:06;;;;;;;24.33;17.33;;;20.10;99.90;;;;;;5057143;28;20286;-63
2023/09/12 04:51:32;;;;;;;22.20;17.92;;;20.10;99.90;;;;;;5050537;28;20040;-64
2023/09/12 04:53:59;;;;;;;22.35;18.40;;;20.10;99.90;;;;;;5052060;28;20048;-63
2023/09/12 04:56:24;;;;;;;18.80;16.05;;;20.10;99.90;;;;;;5033618;28;20358;-63
2023/09/12 04:58:50;;;;;;;25.10;19.58;;;20.10;99.90;;;;;;5046477;28;20198;-64
2023/09/12 05:01:16;;;;;;;23.70;18.63;;;20.10;99.90;;;;;;5037825;28;20190;-64
2023/09/12 05:03:43;;;;;;;21.17;16.58;;;20.00;99.90;;;;;;5040124;28;20107;-64
2023/09/12 05:06:10;;;;;;;20.70;17.33;;;20.00;99.90;;;;;;5044277;28;20048;-64
2023/09/12 05:08:36;;;;;;;21.80;16.27;;;20.00;99.90;;;;;;5046655;28;20195;-64
2023/09/12 05:11:02;;;;;;;22.00;17.52;;;20.00;99.90;;;;;;5046047;28;20506;-63
2023/09/12 05:13:29;;;;;;;21.42;17.63;;;20.00;99.90;;;;;;5052096;28;20052;-63
2023/09/12 05:15:55;;;;;;;21.02;16.90;;;20.00;99.90;;;;;;5048737;28;20367;-63
2023/09/12 05:18:21;;;;;;;21.05;17.52;;;20.00;99.90;;;;;;5037424;28;20511;-64
2023/09/12 05:20:47;;;;;;;22.58;18.00;;;20.00;99.90;;;;;;5049224;28;20215;-64
2023/09/12 05:23:12;;;;;;;23.60;16.83;;;20.00;99.90;;;;;;5052453;28;20048;-64
2023/09/12 05:25:38;;;;;;;21.15;18.25;;;20.00;99.90;;;;;;5055122;28;20483;-63
2023/09/12 05:28:04;;;;;;;21.27;16.85;;;20.00;99.90;;;;;;5049852;28;20039;-64
2023/09/12 05:30:30;;;;;;;20.63;17.50;;;20.00;99.90;;;;;;5044963;28;20040;-63
2023/09/12 05:32:56;;;;;;;20.33;16.67;;;20.00;99.90;;;;;;5053025;28;20097;-63
2023/09/12 05:35:22;;;;;;;23.45;19.55;;;20.00;99.90;;;;;;5024115;28;20052;-63
2023/09/12 05:37:48;;;;;;;21.70;16.90;;;20.00;99.90;;;;;;5039558;28;20154;-63
2023/09/12 05:40:13;;;;;;;18.75;15.40;;;20.00;99.90;;;;;;5051824;28;20062;-63
2023/09/12 05:42:39;;;;;;;21.20;16.92;;;20.00;99.90;;;;;;5047418;28;20028;-64
2023/09/12 05:45:06;;;;;;;19.50;17.30;;;20.00;99.90;;;;;;5047525;28;20135;-64
2023/09/12 05:47:32;;;;;;;21.65;17.60;;;20.00;99.90;;;;;;5051125;28;20298;-64
2023/09/12 05:49:59;;;;;;;20.38;16.55;;;20.00;99.90;;;;;;5046687;28;20036;-63
2023/09/12 05:52:25;;;;;;;20.65;18.45;;;20.10;99.90;;;;;;5059590;28;20190;-63
2023/09/12 05:54:51;;;;;;;21.98;17.30;;;20.10;99.90;;;;;;5054974;28;20196;-63
2023/09/12 05:57:16;;;;;;;22.35;17.92;;;20.10;99.90;;;;;;5054271;28;20198;-62
2023/09/12 05:59:42;;;;;;;24.42;17.35;;;20.10;99.90;;;;;;5053017;28;20186;-63
2023/09/12 06:02:10;;;;;;;22.13;17.55;;;20.10;99.90;;;;;;5055134;28;20257;-63
2023/09/12 06:04:36;;;;;;;23.02;18.50;;;20.10;99.90;;;;;;5050810;28;20040;-63
2023/09/12 06:07:03;;;;;;;23.50;19.33;;;20.10;99.90;;;;;;5055416;28;20529;-63
2023/09/12 06:09:29;;;;;;;22.80;17.67;;;20.10;99.90;;;;;;5059465;28;20514;-63
2023/09/12 06:11:56;;;;;;;23.15;17.65;;;20.10;99.90;;;;;;5059048;28;20127;-63
2023/09/12 06:14:22;;;;;;;24.00;18.98;;;20.10;99.90;;;;;;5052440;28;20111;-63
2023/09/12 06:16:48;;;;;;;23.50;19.83;;;20.10;99.90;;;;;;5059800;28;20040;-63
2023/09/12 06:19:19;;;;;;;25.50;18.38;;;20.10;99.90;;;;;;5054513;28;20048;-63
2023/09/12 06:21:45;;;;;;;22.20;19.15;;;20.20;99.90;;;;;;5055431;28;20032;-65
2023/09/12 06:24:16;;;;;;;26.20;19.75;;;20.20;99.90;;;;;;5052868;28;20078;-63
2023/09/12 06:26:42;;;;;;;27.05;19.35;;;20.20;99.90;;;;;;5054835;28;20068;-64
2023/09/12 06:29:08;;;;;;;23.67;19.15;;;20.20;99.90;;;;;;5041245;28;20162;-64
2023/09/12 06:31:35;;;;;;;28.73;22.33;;;20.20;99.90;;;;;;5053775;28;20518;-63
2023/09/12 06:34:01;;;;;;;28.70;24.10;;;20.20;99.90;;;;;;5050242;28;20566;-63
2023/09/12 06:36:29;;;;;;;31.08;22.20;;;20.20;99.90;;;;;;5060100;28;20120;-63
2023/09/12 06:38:59;;;;;;;28.33;21.77;;;20.20;99.90;;;;;;5050523;28;20496;-64
2023/09/12 06:41:26;;;;;;;29.05;22.65;;;20.20;99.90;;;;;;5053683;28;20189;-63
2023/09/12 06:43:52;;;;;;;30.92;22.77;;;20.30;99.90;;;;;;5064604;28;20633;-63
2023/09/12 06:46:18;;;;;;;28.67;20.77;;;20.30;99.90;;;;;;5051516;28;20120;-63
2023/09/12 06:48:45;;;;;;;30.52;22.67;;;20.30;99.90;;;;;;5049685;28;20040;-64
2023/09/12 06:51:11;;;;;;;29.92;24.70;;;20.30;99.90;;;;;;5053470;28;20553;-64
2023/09/12 06:53:37;;;;;;;27.13;21.30;;;20.40;99.90;;;;;;5048173;28;20056;-63
2023/09/12 06:56:06;;;;;;;33.97;23.05;;;20.30;99.90;;;;;;5051309;28;20099;-63
2023/09/12 06:58:33;;;;;;;32.95;25.05;;;20.30;99.90;;;;;;5046319;28;20654;-64
2023/09/12 07:01:03;;;;;;;31.63;24.30;;;20.40;99.90;;;;;;5057324;28;20563;-63
2023/09/12 07:03:28;;;;;;;33.20;23.40;;;20.30;99.90;;;;;;5054680;28;20067;-63
2023/09/12 07:05:54;;;;;;;38.80;25.52;;;20.40;99.90;;;;;;5052322;28;20075;-63
2023/09/12 07:08:20;;;;;;;35.80;24.92;;;20.40;99.90;;;;;;5058244;28;20112;-63
2023/09/12 07:10:46;;;;;;;39.85;26.83;;;20.40;99.90;;;;;;5053243;28;20064;-63
2023/09/12 07:13:12;;;;;;;32.42;23.48;;;20.40;99.90;;;;;;5063802;28;20040;-63
2023/09/12 07:15:38;;;;;;;32.20;22.88;;;20.40;99.90;;;;;;5071154;28;20044;-63
2023/09/12 07:18:06;;;;;;;35.65;26.55;;;20.40;99.90;;;;;;5060114;28;20110;-64
2023/09/12 07:20:33;;;;;;;32.20;24.17;;;20.40;99.90;;;;;;5052073;28;20037;-64
2023/09/12 07:22:59;;;;;;;30.00;22.35;;;20.50;99.90;;;;;;5060326;28;20445;-63
2023/09/12 07:25:25;;;;;;;35.08;25.05;;;20.50;99.90;;;;;;5055078;28;20126;-64
2023/09/12 07:27:51;;;;;;;30.35;22.80;;;20.50;99.90;;;;;;5053506;28;20052;-63
2023/09/12 07:30:17;;;;;;;39.63;28.33;;;20.50;99.90;;;;;;5048996;28;20632;-63
2023/09/12 07:32:42;;;;;;;36.50;27.10;;;20.50;99.90;;;;;;5061508;28;20056;-64
2023/09/12 07:35:08;;;;;;;30.88;22.55;;;20.60;99.90;;;;;;5046804;28;20495;-64
2023/09/12 07:37:34;;;;;;;34.95;24.45;;;20.60;99.90;;;;;;5048195;28;20036;-64
2023/09/12 07:40:00;;;;;;;37.58;24.70;;;20.60;99.90;;;;;;5053073;28;20639;-64
2023/09/12 07:42:26;;;;;;;36.33;25.80;;;20.60;99.90;;;;;;5051785;28;20622;-64
2023/09/12 07:44:52;;;;;;;36.97;25.40;;;20.70;99.90;;;;;;5050454;28;20169;-64
2023/09/12 07:47:18;;;;;;;31.83;24.90;;;20.70;99.90;;;;;;5055761;28;20287;-65
2023/09/12 07:49:44;;;;;;;29.00;22.25;;;20.70;99.90;;;;;;5045876;28;20112;-64
2023/09/12 07:52:10;;;;;;;35.58;23.50;;;20.80;99.90;;;;;;5053992;28;20056;-64
2023/09/12 07:54:36;;;;;;;35.60;24.58;;;20.80;99.90;;;;;;5061713;28;20083;-64
2023/09/12 07:57:03;;;;;;;34.72;26.10;;;20.90;99.90;;;;;;5060168;28;20043;-64
2023/09/12 07:59:34;;;;;;;33.35;23.88;;;21.00;99.90;;;;;;5056267;28;20606;-65
2023/09/12 08:02:00;;;;;;;36.95;26.15;;;21.00;99.90;;;;;;5061233;28;20047;-64
2023/09/12 08:04:26;;;;;;;38.58;26.42;;;21.10;99.90;;;;;;5054899;28;20144;-65
2023/09/12 08:06:54;;;;;;;31.38;21.38;;;21.10;99.90;;;;;;5057822;28;20032;-65
2023/09/12 08:09:20;;;;;;;29.55;22.15;;;21.20;99.90;;;;;;5056773;28;20242;-64
2023/09/12 08:11:46;;;;;;;26.88;19.33;;;21.20;99.90;;;;;;5061193;28;20040;-65
2023/09/12 08:14:12;;;;;;;30.27;21.85;;;21.20;99.90;;;;;;5057063;28;20174;-64
2023/09/12 08:16:38;;;;;;;28.60;21.23;;;21.30;99.90;;;;;;5062682;28;20100;-65
2023/09/12 08:19:04;;;;;;;29.70;20.65;;;21.30;99.90;;;;;;5056055;28;20089;-65
2023/09/12 08:21:30;;;;;;;23.80;16.60;;;21.30;99.90;;;;;;5060385;28;20247;-65
2023/09/12 08:23:56;;;;;;;30.20;20.40;;;21.30;99.90;;;;;;5058127;28;20036;-64
2023/09/12 08:26:21;;;;;;;26.17;18.77;;;21.40;99.90;;;;;;5061336;28;20059;-65
2023/09/12 08:28:47;;;;;;;23.38;18.42;;;21.40;99.90;;;;;;5059508;28;20312;-64
2023/09/12 08:31:13;;;;;;;25.02;17.90;;;21.40;99.90;;;;;;5063048;28;20225;-64
2023/09/12 08:33:39;;;;;;;27.95;22.42;;;21.40;99.90;;;;;;5054875;28;20103;-65
2023/09/12 08:36:04;;;;;;;32.70;21.85;;;21.40;99.90;;;;;;5050750;28;20028;-64
2023/09/12 08:38:30;;;;;;;25.60;18.95;;;21.50;99.90;;;;;;5056296;28;20044;-65
2023/09/12 08:40:57;;;;;;;26.83;20.40;;;21.50;99.90;;;;;;5061921;28;20704;-64
2023/09/12 08:43:22;;;;;;;29.95;20.67;;;21.50;99.90;;;;;;5057854;28;20060;-65
2023/09/12 08:45:49;;;;;;;33.95;22.42;;;21.50;99.90;;;;;;5037126;28;20294;-64
2023/09/12 08:48:16;;;;;;;29.10;21.73;;;21.60;99.90;;;;;;5074041;28;20273;-65
2023/09/12 08:50:42;;;;;;;30.50;22.00;;;21.60;99.90;;;;;;5065251;28;20566;-64
2023/09/12 08:53:07;;;;;;;28.70;21.48;;;21.60;99.90;;;;;;5046653;28;20144;-65
2023/09/12 08:55:35;;;;;;;27.45;19.67;;;21.60;99.90;;;;;;5057516;28;20439;-65
2023/09/12 08:58:03;;;;;;;26.95;19.92;;;21.70;99.90;;;;;;5061620;28;20041;-65
2023/09/12 09:00:29;;;;;;;28.23;19.00;;;21.70;99.90;;;;;;5047737;28;20451;-65
2023/09/12 09:02:55;;;;;;;20.60;15.00;;;21.80;99.90;;;;;;5042505;28;20334;-64
2023/09/12 09:05:23;;;;;;;25.52;17.25;;;21.80;99.90;;;;;;5045608;28;20078;-65
2023/09/12 09:07:49;;;;;;;25.73;16.38;;;21.80;99.90;;;;;;5044828;28;20214;-64
2023/09/12 09:10:17;;;;;;;22.65;15.77;;;21.90;99.90;;;;;;5051553;28;20518;-65
2023/09/12 09:12:45;;;;;;;23.88;15.15;;;21.90;99.90;;;;;;5054304;28;20180;-65
2023/09/12 09:15:25;;;;;;;20.15;14.50;;;;;;;;;;5057036;28;20518;-64
2023/09/12 09:17:52;;;;;;;17.83;13.52;;;;;;;;;;5048817;28;20036;-65
2023/09/12 09:20:35;;;;;;;20.60;13.25;;;;;;;;;;5059879;28;20175;-64
2023/09/12 09:23:01;;;;;;;;;;;;;;;;;;5064143;28;20036;-65
2023/09/12 09:25:27;;;;;;;17.92;12.43;;;;;;;;;;5056498;28;20070;-65
2023/09/12 09:27:53;;;;;;;18.10;12.30;;;22.00;99.90;;;;;;5059595;28;20037;-65
2023/09/12 09:30:42;;;;;;;17.50;10.80;;;22.30;99.90;;;;;;5032369;28;20231;-64
2023/09/12 09:33:08;;;;;;;15.93;10.43;;;22.40;99.90;;;;;;5052509;28;20099;-64
2023/09/12 09:35:34;;;;;;;14.52;10.77;;;22.50;99.90;;;;;;5042783;28;20362;-65
2023/09/12 09:38:01;;;;;;;16.33;9.95;;;22.50;99.90;;;;;;5051148;28;20513;-65
2023/09/12 09:40:26;;;;;;;13.38;9.55;;;22.70;99.90;;;;;;5043375;28;20219;-64
2023/09/12 09:42:56;;;;;;;17.38;10.85;;;;;;;;;;5046060;28;20124;-64
2023/09/12 09:45:22;;;;;;;13.43;8.70;;;;;;;;;;5056599;28;20163;-64
2023/09/12 09:47:53;;;;;;;13.30;8.73;;;;;;;;;;5048327;28;20040;-64
2023/09/12 09:50:19;;;;;;;11.75;8.30;;;;;;;;;;5050763;28;20049;-64
2023/09/12 09:52:45;;;;;;;12.02;8.43;;;;;;;;;;5051771;28;20080;-65
2023/09/12 09:55:17;;;;;;;17.15;9.20;;;;;;;;;;5058329;28;20124;-65
2023/09/12 09:57:43;;;;;;;12.55;9.30;;;;;;;;;;5026560;28;20236;-64
2023/09/12 10:00:14;;;;;;;16.83;10.35;;;22.80;99.90;;;;;;5027004;28;20431;-64
2023/09/12 10:02:42;;;;;;;13.02;9.23;;;23.50;99.90;;;;;;5046420;28;20037;-65
2023/09/12 10:05:11;;;;;;;14.48;9.98;;;23.60;99.90;;;;;;5054539;28;20624;-64
2023/09/12 10:07:39;;;;;;;11.00;7.95;;;23.60;99.90;;;;;;5022480;28;20162;-64
2023/09/12 10:10:06;;;;;;;11.18;7.53;;;23.60;99.90;;;;;;5045741;28;20115;-64
2023/09/12 10:12:35;;;;;;;16.33;8.07;;;23.70;99.90;;;;;;5048301;28;20048;-64
2023/09/12 10:15:01;;;;;;;11.40;7.78;;;23.70;99.90;;;;;;5050602;28;20060;-64
2023/09/12 10:17:33;;;;;;;11.60;7.45;;;23.80;99.90;;;;;;5044475;28;20070;-64
2023/09/12 10:20:09;;;;;;;7.85;5.75;;;23.80;99.90;;;;;;5044837;28;20508;-64
2023/09/12 10:22:41;;;;;;;11.38;7.97;;;23.80;99.90;;;;;;5042902;28;20091;-65
2023/09/12 10:25:08;;;;;;;16.85;8.25;;;23.90;99.90;;;;;;5050155;28;20181;-65
2023/09/12 10:27:34;;;;;;;11.73;8.70;;;23.90;99.90;;;;;;5044516;28;20040;-65
2023/09/12 10:30:02;;;;;;;12.10;7.38;;;23.90;99.90;;;;;;5040859;28;20029;-64
2023/09/12 10:32:29;;;;;;;11.25;8.68;;;23.90;99.90;;;;;;5040877;28;20128;-64
2023/09/12 10:34:59;;;;;;;10.23;7.72;;;23.90;99.90;;;;;;5039045;28;20040;-65
2023/09/12 10:37:26;;;;;;;10.38;6.90;;;23.90;99.90;;;;;;5046746;28;20195;-65
2023/09/12 10:39:57;;;;;;;9.82;7.68;;;23.90;99.90;;;;;;5041862;28;20104;-64
2023/09/12 10:42:25;;;;;;;9.70;7.88;;;23.90;99.90;;;;;;5041577;28;20051;-64
2023/09/12 10:44:54;;;;;;;8.95;6.20;;;24.00;99.90;;;;;;5048507;28;20182;-65
2023/09/12 10:47:20;;;;;;;11.13;6.03;;;24.00;99.90;;;;;;5045756;28;20124;-64
2023/09/12 10:49:46;;;;;;;12.48;8.05;;;24.00;99.90;;;;;;5050670;28;20247;-64
2023/09/12 10:52:25;;;;;;;8.88;6.82;;;24.10;99.90;;;;;;5026912;28;20172;-64
2023/09/12 10:54:51;;;;;;;12.40;7.88;;;24.10;99.90;;;;;;5058685;28;20264;-64
2023/09/12 10:57:17;;;;;;;9.98;6.95;;;24.10;99.90;;;;;;5058393;28;20079;-65
2023/09/12 11:00:19;;;;;;;10.57;6.90;;;24.10;99.90;;;;;;5044591;28;20065;-64
2023/09/12 11:02:45;;;;;;;8.80;6.63;;;24.20;99.90;;;;;;5048479;28;20515;-64
2023/09/12 11:05:29;;;;;;;13.82;8.82;;;24.20;99.90;;;;;;5050572;28;20053;-65
2023/09/12 11:08:04;;;;;;;10.77;7.63;;;24.20;99.90;;;;;;5049914;28;20105;-65
2023/09/12 11:10:32;;;;;;;10.20;7.22;;;24.20;99.90;;;;;;5051155;28;20231;-65
2023/09/12 11:12:58;;;;;;;9.38;6.40;;;24.30;99.90;;;;;;5051057;28;20076;-64
2023/09/12 11:15:26;;;;;;;12.77;7.65;;;24.30;99.90;;;;;;5049748;28;20036;-65
2023/09/12 11:18:05;;;;;;;10.90;8.27;;;24.40;99.90;;;;;;5055859;28;20064;-64
2023/09/12 11:20:51;;;;;;;6.85;5.38;;;24.30;99.90;;;;;;5057219;28;20315;-65
2023/09/12 11:23:17;;;;;;;11.43;7.72;;;24.40;99.90;;;;;;5044557;28;20281;-65
2023/09/12 11:25:43;;;;;;;11.10;5.80;;;24.40;99.90;;;;;;5057640;28;20142;-64
2023/09/12 11:28:09;;;;;;;11.00;6.95;;;24.30;99.90;;;;;;5054818;28;20068;-64
2023/09/12 11:30:35;;;;;;;11.18;7.40;;;24.40;99.90;;;;;;5053711;28;20583;-64
2023/09/12 11:33:05;;;;;;;10.52;8.05;;;24.40;99.90;;;;;;5052000;28;20535;-64
2023/09/12 11:35:37;;;;;;;14.05;7.72;;;24.40;99.90;;;;;;5047019;28;20041;-65
2023/09/12 11:38:03;;;;;;;10.73;7.20;;;24.40;99.90;;;;;;5036410;28;20048;-64
2023/09/12 11:40:35;;;;;;;16.80;8.15;;;24.30;99.90;;;;;;5047992;28;20430;-64
2023/09/12 11:43:01;;;;;;;10.68;7.05;;;24.30;99.90;;;;;;5052406;28;20235;-64
2023/09/12 11:45:30;;;;;;;12.40;8.32;;;24.30;99.90;;;;;;5048528;28;20121;-64
2023/09/12 11:47:56;;;;;;;10.45;6.65;;;24.30;99.90;;;;;;5048562;28;20052;-64
2023/09/12 11:50:32;;;;;;;9.65;7.28;;;24.20;99.90;;;;;;5057975;28;20047;-64
2023/09/12 11:53:10;;;;;;;14.05;7.05;;;24.20;99.90;;;;;;5031880;28;20049;-64
2023/09/12 11:55:48;;;;;;;9.85;7.28;;;24.10;99.90;;;;;;5043839;28;20048;-64
2023/09/12 11:58:15;;;;;;;12.25;6.57;;;24.10;99.90;;;;;;5048119;28;20049;-64
2023/09/12 12:00:52;;;;;;;9.10;6.20;;;24.00;99.90;;;;;;5049921;28;20044;-64
2023/09/12 12:03:21;;;;;;;17.00;7.22;;;24.00;99.90;;;;;;5052412;28;20259;-64
2023/09/12 12:05:47;;;;;;;13.98;7.28;;;24.00;99.90;;;;;;5048176;28;20117;-64
2023/09/12 12:08:15;;;;;;;9.88;7.13;;;24.00;99.90;;;;;;5053789;28;20465;-64
2023/09/12 12:10:41;;;;;;;11.85;6.60;;;24.00;99.90;;;;;;5053284;28;20696;-64
2023/09/12 12:13:12;;;;;;;10.98;5.78;;;24.00;99.90;;;;;;5056065;28;20048;-64
2023/09/12 12:15:37;;;;;;;10.63;6.13;;;24.00;99.90;;;;;;5048375;28;20093;-65
2023/09/12 12:18:04;;;;;;;6.90;5.72;;;24.00;99.80;;;;;;5062625;28;20092;-64
2023/09/12 12:20:30;;;;;;;10.98;5.25;;;24.00;99.70;;;;;;5064015;28;20621;-64
2023/09/12 12:22:56;;;;;;;6.35;5.40;;;24.00;99.70;;;;;;5057005;28;20044;-64
2023/09/12 12:25:22;;;;;;;6.50;5.55;;;24.00;99.70;;;;;;5058738;28;20197;-64
2023/09/12 12:27:49;;;;;;;6.35;5.20;;;24.00;99.60;;;;;;5056946;28;20274;-64
2023/09/12 12:30:15;;;;;;;8.48;5.75;;;24.00;99.60;;;;;;5058082;28;20531;-64
2023/09/12 12:32:52;;;;;;;7.18;4.82;;;24.00;99.60;;;;;;5065107;28;20040;-64
2023/09/12 12:35:22;;;;;;;7.05;5.20;;;23.90;99.50;;;;;;5046082;28;20059;-65